sensor_id;sensor_type;location;lat;lon;timestamp;pressure;altitude;pressure_sealevel;temperature;humidity
9474;BME280;8865;47.636;7.692;2023-02-14T00:02:16;100095.00;;;1.05;100.00
9474;BME280;8865;47.636;7.692;2023-02-14T00:04:42;100101.91;;;1.05;100.00
9474;BME280;8865;47.636;7.692;2023-02-14T00:07:10;100101.16;;;0.97;100.00
9474;BME280;8865;47.636;7.692;2023-02-14T00:09:36;100098.63;;;0.95;100.00
9474;BME280;8865;47.636;7.692;2023-02-14T00:12:03;100099.53;;;0.94;100.00
9474;BME280;8865;47.636;7.692;2023-02-14T00:14:29;100091.00;;;0.87;100.00
9474;BME280;8865;47.636;7.692;2023-02-14T00:17:14;100092.81;;;0.82;100.00
9474;BME280;8865;47.636;7.692;2023-02-14T00:19:40;100087.72;;;0.79;100.00
9474;BME280;8865;47.636;7.692;2023-02-14T00:22:06;100087.75;;;0.78;100.00
9474;BME280;8865;47.636;7.692;2023-02-14T00:24:32;100088.72;;;0.70;100.00
9474;BME280;8865;47.636;7.692;2023-02-14T00:26:58;100093.09;;;0.65;100.00
9474;BME280;8865;47.636;7.692;2023-02-14T00:29:30;100089.59;;;0.71;100.00
9474;BME280;8865;47.636;7.692;2023-02-14T00:31:56;100084.44;;;0.69;100.00
9474;BME280;8865;47.636;7.692;2023-02-14T00:34:22;100089.59;;;0.69;100.00
9474;BME280;8865;47.636;7.692;2023-02-14T00:36:48;100081.84;;;0.71;100.00
9474;BME280;8865;47.636;7.692;2023-02-14T00:39:15;100088.78;;;0.66;100.00
9474;BME280;8865;47.636;7.692;2023-02-14T00:41:42;100088.88;;;0.60;100.00
9474;BME280;8865;47.636;7.692;2023-02-14T00:44:09;100087.13;;;0.63;100.00
9474;BME280;8865;47.636;7.692;2023-02-14T00:46:36;100088.97;;;0.55;100.00
9474;BME280;8865;47.636;7.692;2023-02-14T00:49:02;100093.16;;;0.62;100.00
9474;BME280;8865;47.636;7.692;2023-02-14T00:51:28;100088.91;;;0.58;100.00
9474;BME280;8865;47.636;7.692;2023-02-14T00:53:55;100079.50;;;0.57;100.00
9474;BME280;8865;47.636;7.692;2023-02-14T00:56:21;100080.38;;;0.55;100.00
9474;BME280;8865;47.636;7.692;2023-02-14T00:58:47;100088.00;;;0.61;100.00
9474;BME280;8865;47.636;7.692;2023-02-14T01:01:14;100082.03;;;0.60;100.00
9474;BME280;8865;47.636;7.692;2023-02-14T01:03:41;100082.84;;;0.62;100.00
9474;BME280;8865;47.636;7.692;2023-02-14T01:06:07;100077.63;;;0.65;100.00
9474;BME280;8865;47.636;7.692;2023-02-14T01:08:33;100080.22;;;0.64;100.00
9474;BME280;8865;47.636;7.692;2023-02-14T01:11:20;100093.13;;;0.64;100.00
9474;BME280;8865;47.636;7.692;2023-02-14T01:13:48;100088.81;;;0.64;100.00
9474;BME280;8865;47.636;7.692;2023-02-14T01:16:17;100087.06;;;0.68;100.00
9474;BME280;8865;47.636;7.692;2023-02-14T01:18:44;100086.25;;;0.63;100.00
9474;BME280;8865;47.636;7.692;2023-02-14T01:21:22;100087.06;;;0.66;100.00
9474;BME280;8865;47.636;7.692;2023-02-14T01:23:51;100098.28;;;0.64;100.00
9474;BME280;8865;47.636;7.692;2023-02-14T01:26:19;100092.31;;;0.62;100.00
9474;BME280;8865;47.636;7.692;2023-02-14T01:28:46;100093.22;;;0.58;100.00
9474;BME280;8865;47.636;7.692;2023-02-14T01:31:16;100095.81;;;0.58;100.00
9474;BME280;8865;47.636;7.692;2023-02-14T01:33:44;100100.97;;;0.56;100.00
9474;BME280;8865;47.636;7.692;2023-02-14T01:36:21;100101.81;;;0.58;100.00
9474;BME280;8865;47.636;7.692;2023-02-14T01:38:51;100090.63;;;0.59;100.00
9474;BME280;8865;47.636;7.692;2023-02-14T01:41:18;100088.00;;;0.61;100.00
9474;BME280;8865;47.636;7.692;2023-02-14T01:43:52;100093.28;;;0.53;100.00
9474;BME280;8865;47.636;7.692;2023-02-14T01:46:20;100091.50;;;0.57;100.00
9474;BME280;8865;47.636;7.692;2023-02-14T01:48:48;100086.34;;;0.57;100.00
9474;BME280;8865;47.636;7.692;2023-02-14T01:51:15;100098.34;;;0.61;100.00
9474;BME280;8865;47.636;7.692;2023-02-14T01:53:43;100102.59;;;0.63;100.00
9474;BME280;8865;47.636;7.692;2023-02-14T01:56:13;100093.16;;;0.61;100.00
9474;BME280;8865;47.636;7.692;2023-02-14T01:58:43;100097.50;;;0.60;100.00
9474;BME280;8865;47.636;7.692;2023-02-14T02:01:16;100099.25;;;0.57;100.00
9474;BME280;8865;47.636;7.692;2023-02-14T02:03:56;100098.31;;;0.62;100.00
9474;BME280;8865;47.636;7.692;2023-02-14T02:06:33;100092.16;;;0.71;100.00
9474;BME280;8865;47.636;7.692;2023-02-14T02:09:34;100101.47;;;0.80;100.00
9474;BME280;8865;47.636;7.692;2023-02-14T02:12:02;100100.59;;;0.81;100.00
9474;BME280;8865;47.636;7.692;2023-02-14T02:14:28;100095.31;;;0.87;100.00
9474;BME280;8865;47.636;7.692;2023-02-14T02:36:57;100061.09;;;1.25;100.00
9474;BME280;8865;47.636;7.692;2023-02-14T02:44:48;100059.16;;;1.38;100.00
9474;BME280;8865;47.636;7.692;2023-02-14T02:47:25;100061.66;;;1.43;100.00
9474;BME280;8865;47.636;7.692;2023-02-14T02:50:45;100054.63;;;1.50;100.00
9474;BME280;8865;47.636;7.692;2023-02-14T02:53:23;100050.97;;;1.60;100.00
9474;BME280;8865;47.636;7.692;2023-02-14T02:55:56;100044.84;;;1.64;100.00
9474;BME280;8865;47.636;7.692;2023-02-14T02:58:57;100040.72;;;1.57;100.00
9474;BME280;8865;47.636;7.692;2023-02-14T03:01:29;100041.47;;;1.60;100.00
9474;BME280;8865;47.636;7.692;2023-02-14T03:03:59;100038.06;;;1.60;100.00
9474;BME280;8865;47.636;7.692;2023-02-14T03:06:46;100038.19;;;1.54;100.00
9474;BME280;8865;47.636;7.692;2023-02-14T03:32:21;100058.50;;;1.71;100.00
9474;BME280;8865;47.636;7.692;2023-02-14T03:34:53;100059.22;;;1.77;100.00
9474;BME280;8865;47.636;7.692;2023-02-14T03:37:31;100062.66;;;1.76;100.00
9474;BME280;8865;47.636;7.692;2023-02-14T03:40:12;100056.63;;;1.77;100.00
9474;BME280;8865;47.636;7.692;2023-02-14T03:42:49;100053.09;;;1.82;100.00
9474;BME280;8865;47.636;7.692;2023-02-14T03:45:21;100054.91;;;1.76;100.00
9474;BME280;8865;47.636;7.692;2023-02-14T03:47:50;100053.91;;;1.84;100.00
9474;BME280;8865;47.636;7.692;2023-02-14T03:50:18;100054.69;;;1.87;100.00
9474;BME280;8865;47.636;7.692;2023-02-14T03:52:48;100057.28;;;1.87;100.00
9474;BME280;8865;47.636;7.692;2023-02-14T03:55:21;100058.06;;;1.91;100.00
9474;BME280;8865;47.636;7.692;2023-02-14T03:57:54;100057.09;;;1.95;100.00
9474;BME280;8865;47.636;7.692;2023-02-14T04:00:23;100058.00;;;1.94;100.00
9474;BME280;8865;47.636;7.692;2023-02-14T04:02:54;100058.81;;;1.96;100.00
9474;BME280;8865;47.636;7.692;2023-02-14T04:05:26;100060.56;;;1.95;100.00
9474;BME280;8865;47.636;7.692;2023-02-14T04:07:54;100061.31;;;2.01;100.00
9474;BME280;8865;47.636;7.692;2023-02-14T04:10:21;100057.44;;;1.79;100.00
9474;BME280;8865;47.636;7.692;2023-02-14T04:12:48;100057.38;;;1.83;100.00
9474;BME280;8865;47.636;7.692;2023-02-14T04:15:14;100059.03;;;1.87;100.00
9474;BME280;8865;47.636;7.692;2023-02-14T04:17:41;100056.50;;;1.84;100.00
9474;BME280;8865;47.636;7.692;2023-02-14T04:20:26;100065.09;;;1.84;100.00
9474;BME280;8865;47.636;7.692;2023-02-14T04:22:53;100065.84;;;1.91;100.00
9474;BME280;8865;47.636;7.692;2023-02-14T04:25:20;100069.47;;;1.81;100.00
9474;BME280;8865;47.636;7.692;2023-02-14T04:27:46;100067.78;;;1.79;100.00
9474;BME280;8865;47.636;7.692;2023-02-14T04:30:13;100071.22;;;1.80;100.00
9474;BME280;8865;47.636;7.692;2023-02-14T04:32:39;100067.66;;;1.84;100.00
9474;BME280;8865;47.636;7.692;2023-02-14T04:35:06;100067.94;;;1.72;100.00
9474;BME280;8865;47.636;7.692;2023-02-14T04:37:32;100067.22;;;1.65;100.00
9474;BME280;8865;47.636;7.692;2023-02-14T04:39:58;100072.31;;;1.68;100.00
9474;BME280;8865;47.636;7.692;2023-02-14T04:42:24;100066.97;;;1.77;100.00
9474;BME280;8865;47.636;7.692;2023-02-14T04:44:50;100074.56;;;1.85;100.00
9474;BME280;8865;47.636;7.692;2023-02-14T04:47:16;100062.53;;;1.83;100.00
9474;BME280;8865;47.636;7.692;2023-02-14T04:49:42;100070.25;;;1.84;100.00
9474;BME280;8865;47.636;7.692;2023-02-14T04:52:08;100066.88;;;1.82;100.00
9474;BME280;8865;47.636;7.692;2023-02-14T04:54:34;100057.56;;;1.73;100.00
9474;BME280;8865;47.636;7.692;2023-02-14T04:57:00;100058.44;;;1.74;100.00
9474;BME280;8865;47.636;7.692;2023-02-14T04:59:26;100056.78;;;1.70;100.00
9474;BME280;8865;47.636;7.692;2023-02-14T05:01:52;100056.81;;;1.68;100.00
9474;BME280;8865;47.636;7.692;2023-02-14T05:04:18;100056.00;;;1.66;100.00
9474;BME280;8865;47.636;7.692;2023-02-14T05:06:44;100057.69;;;1.67;100.00
9474;BME280;8865;47.636;7.692;2023-02-14T05:09:10;100056.84;;;1.67;100.00
9474;BME280;8865;47.636;7.692;2023-02-14T05:11:36;100055.06;;;1.69;100.00
9474;BME280;8865;47.636;7.692;2023-02-14T05:14:02;100049.00;;;1.71;100.00
9474;BME280;8865;47.636;7.692;2023-02-14T05:16:28;100056.84;;;1.67;100.00
9474;BME280;8865;47.636;7.692;2023-02-14T05:18:54;100055.94;;;1.69;100.00
9474;BME280;8865;47.636;7.692;2023-02-14T05:21:21;100049.78;;;1.75;100.00
9474;BME280;8865;47.636;7.692;2023-02-14T05:23:47;100060.09;;;1.76;100.00
9474;BME280;8865;47.636;7.692;2023-02-14T05:26:13;100066.09;;;1.78;100.00
9474;BME280;8865;47.636;7.692;2023-02-14T05:28:39;100060.00;;;1.81;100.00
9474;BME280;8865;47.636;7.692;2023-02-14T05:31:06;100056.47;;;1.85;100.00
9474;BME280;8865;47.636;7.692;2023-02-14T05:33:32;100063.56;;;1.75;100.00
9474;BME280;8865;47.636;7.692;2023-02-14T05:35:59;100067.28;;;1.62;100.00
9474;BME280;8865;47.636;7.692;2023-02-14T05:38:28;100062.97;;;1.61;100.00
9474;BME280;8865;47.636;7.692;2023-02-14T05:40:55;100067.97;;;1.70;100.00
9474;BME280;8865;47.636;7.692;2023-02-14T05:43:20;100067.19;;;1.67;100.00
9474;BME280;8865;47.636;7.692;2023-02-14T05:45:47;100077.47;;;1.70;100.00
9474;BME280;8865;47.636;7.692;2023-02-14T05:48:14;100080.03;;;1.70;100.00
9474;BME280;8865;47.636;7.692;2023-02-14T05:50:40;100074.97;;;1.65;100.00
9474;BME280;8865;47.636;7.692;2023-02-14T05:53:08;100083.78;;;1.55;100.00
9474;BME280;8865;47.636;7.692;2023-02-14T05:55:34;100081.91;;;1.63;100.00
9474;BME280;8865;47.636;7.692;2023-02-14T05:58:00;100089.47;;;1.72;100.00
9474;BME280;8865;47.636;7.692;2023-02-14T06:00:26;100095.38;;;1.77;100.00
9474;BME280;8865;47.636;7.692;2023-02-14T06:02:52;100083.19;;;1.84;100.00
9474;BME280;8865;47.636;7.692;2023-02-14T06:05:19;100090.13;;;1.82;100.00
9474;BME280;8865;47.636;7.692;2023-02-14T06:07:47;100091.28;;;1.67;100.00
9474;BME280;8865;47.636;7.692;2023-02-14T06:10:17;100094.81;;;1.63;100.00
9474;BME280;8865;47.636;7.692;2023-02-14T06:12:43;100093.94;;;1.63;100.00
9474;BME280;8865;47.636;7.692;2023-02-14T06:15:10;100098.38;;;1.57;100.00
9474;BME280;8865;47.636;7.692;2023-02-14T06:17:36;100102.66;;;1.58;100.00
9474;BME280;8865;47.636;7.692;2023-02-14T06:20:02;100097.53;;;1.57;100.00
9474;BME280;8865;47.636;7.692;2023-02-14T06:22:30;100104.25;;;1.64;100.00
9474;BME280;8865;47.636;7.692;2023-02-14T06:24:56;100099.13;;;1.63;100.00
9474;BME280;8865;47.636;7.692;2023-02-14T06:27:21;100107.03;;;1.53;100.00
9474;BME280;8865;47.636;7.692;2023-02-14T06:29:48;100108.69;;;1.57;100.00
9474;BME280;8865;47.636;7.692;2023-02-14T06:32:14;100113.19;;;1.48;100.00
9474;BME280;8865;47.636;7.692;2023-02-14T06:34:40;100123.56;;;1.46;100.00
9474;BME280;8865;47.636;7.692;2023-02-14T06:37:06;100117.31;;;1.56;100.00
9474;BME280;8865;47.636;7.692;2023-02-14T06:39:33;100123.28;;;1.60;100.00
9474;BME280;8865;47.636;7.692;2023-02-14T06:41:59;100126.50;;;1.71;100.00
9474;BME280;8865;47.636;7.692;2023-02-14T06:44:25;100122.09;;;1.76;100.00
9474;BME280;8865;47.636;7.692;2023-02-14T06:46:50;100120.44;;;1.74;100.00
9474;BME280;8865;47.636;7.692;2023-02-14T06:49:17;100114.34;;;1.76;100.00
9474;BME280;8865;47.636;7.692;2023-02-14T06:51:43;100117.88;;;1.72;100.00
9474;BME280;8865;47.636;7.692;2023-02-14T06:54:09;100118.06;;;1.63;100.00
9474;BME280;8865;47.636;7.692;2023-02-14T06:56:34;100117.34;;;1.55;100.00
9474;BME280;8865;47.636;7.692;2023-02-14T06:59:00;100123.31;;;1.58;100.00
9474;BME280;8865;47.636;7.692;2023-02-14T07:01:26;100133.56;;;1.63;100.00
9474;BME280;8865;47.636;7.692;2023-02-14T07:03:52;100120.78;;;1.57;100.00
9474;BME280;8865;47.636;7.692;2023-02-14T07:06:18;100116.53;;;1.53;100.00
9474;BME280;8865;47.636;7.692;2023-02-14T07:08:44;100126.78;;;1.57;100.00
9474;BME280;8865;47.636;7.692;2023-02-14T07:11:10;100121.63;;;1.56;100.00
9474;BME280;8865;47.636;7.692;2023-02-14T07:13:36;100120.63;;;1.65;100.00
9474;BME280;8865;47.636;7.692;2023-02-14T07:16:02;100115.47;;;1.63;100.00
9474;BME280;8865;47.636;7.692;2023-02-14T07:18:28;100118.13;;;1.60;100.00
9474;BME280;8865;47.636;7.692;2023-02-14T07:20:54;100110.19;;;1.69;100.00
9474;BME280;8865;47.636;7.692;2023-02-14T07:23:21;100110.34;;;1.62;100.00
9474;BME280;8865;47.636;7.692;2023-02-14T07:25:47;100107.72;;;1.63;100.00
9474;BME280;8865;47.636;7.692;2023-02-14T07:28:13;100110.28;;;1.65;100.00
9474;BME280;8865;47.636;7.692;2023-02-14T07:30:39;100106.78;;;1.67;100.00
9474;BME280;8865;47.636;7.692;2023-02-14T07:33:05;100104.25;;;1.64;100.00
9474;BME280;8865;47.636;7.692;2023-02-14T07:35:31;100112.00;;;1.64;100.00
9474;BME280;8865;47.636;7.692;2023-02-14T07:37:57;100104.88;;;1.77;100.00
9474;BME280;8865;47.636;7.692;2023-02-14T07:40:23;100104.06;;;1.73;100.00
9474;BME280;8865;47.636;7.692;2023-02-14T07:42:53;100101.53;;;1.70;100.00
9474;BME280;8865;47.636;7.692;2023-02-14T07:45:20;100106.44;;;1.84;100.00
9474;BME280;8865;47.636;7.692;2023-02-14T07:47:48;100100.25;;;1.91;100.00
9474;BME280;8865;47.636;7.692;2023-02-14T07:50:15;100094.13;;;1.97;100.00
9474;BME280;8865;47.636;7.692;2023-02-14T07:52:41;100090.72;;;1.93;100.00
9474;BME280;8865;47.636;7.692;2023-02-14T07:55:07;100098.38;;;1.98;100.00
9474;BME280;8865;47.636;7.692;2023-02-14T07:57:33;100100.88;;;2.03;100.00
9474;BME280;8865;47.636;7.692;2023-02-14T07:59:59;100095.34;;;2.21;100.00
9474;BME280;8865;47.636;7.692;2023-02-14T08:02:25;100086.56;;;2.27;100.00
9474;BME280;8865;47.636;7.692;2023-02-14T08:04:51;100095.00;;;2.37;100.00
9474;BME280;8865;47.636;7.692;2023-02-14T08:07:17;100086.34;;;2.36;100.00
9474;BME280;8865;47.636;7.692;2023-02-14T08:09:43;100089.00;;;2.33;100.00
9474;BME280;8865;47.636;7.692;2023-02-14T08:12:09;100085.34;;;2.43;100.00
9474;BME280;8865;47.636;7.692;2023-02-14T08:14:53;100091.03;;;2.58;100.00
9474;BME280;8865;47.636;7.692;2023-02-14T08:17:39;100086.47;;;2.69;100.00
9474;BME280;8865;47.636;7.692;2023-02-14T08:20:06;100093.47;;;2.64;100.00
9474;BME280;8865;47.636;7.692;2023-02-14T08:22:32;100082.72;;;2.81;100.00
9474;BME280;8865;47.636;7.692;2023-02-14T08:24:58;100087.47;;;2.98;100.00
9474;BME280;8865;47.636;7.692;2023-02-14T08:27:24;100083.06;;;3.01;100.00
9474;BME280;8865;47.636;7.692;2023-02-14T08:29:50;100085.31;;;3.15;100.00
9474;BME280;8865;47.636;7.692;2023-02-14T08:32:16;100074.88;;;3.18;100.00
9474;BME280;8865;47.636;7.692;2023-02-14T08:34:46;100079.81;;;3.28;100.00
9474;BME280;8865;47.636;7.692;2023-02-14T08:37:12;100079.09;;;3.22;100.00
9474;BME280;8865;47.636;7.692;2023-02-14T08:39:38;100071.22;;;3.26;100.00
9474;BME280;8865;47.636;7.692;2023-02-14T08:42:05;100070.19;;;3.31;100.00
9474;BME280;8865;47.636;7.692;2023-02-14T08:44:31;100072.56;;;3.39;100.00
9474;BME280;8865;47.636;7.692;2023-02-14T08:46:57;100072.19;;;3.53;100.00
9474;BME280;8865;47.636;7.692;2023-02-14T08:49:23;100073.16;;;3.80;100.00
9474;BME280;8865;47.636;7.692;2023-02-14T08:51:49;100077.06;;;3.95;100.00
9474;BME280;8865;47.636;7.692;2023-02-14T08:54:15;100066.59;;;3.98;100.00
9474;BME280;8865;47.636;7.692;2023-02-14T08:56:41;100060.31;;;4.34;100.00
9474;BME280;8865;47.636;7.692;2023-02-14T08:59:07;100053.00;;;4.46;100.00
9474;BME280;8865;47.636;7.692;2023-02-14T09:01:33;100049.84;;;4.63;100.00
9474;BME280;8865;47.636;7.692;2023-02-14T09:04:01;100046.06;;;4.99;100.00
9474;BME280;8865;47.636;7.692;2023-02-14T09:06:28;100043.25;;;5.30;100.00
9474;BME280;8865;47.636;7.692;2023-02-14T09:08:54;100040.91;;;5.48;100.00
9474;BME280;8865;47.636;7.692;2023-02-14T09:11:23;100035.47;;;6.23;100.00
9474;BME280;8865;47.636;7.692;2023-02-14T09:13:51;100041.94;;;6.78;100.00
9474;BME280;8865;47.636;7.692;2023-02-14T09:16:18;100038.75;;;7.12;100.00
9474;BME280;8865;47.636;7.692;2023-02-14T09:18:45;100036.63;;;7.41;100.00
9474;BME280;8865;47.636;7.692;2023-02-14T09:21:17;100033.34;;;7.95;100.00
9474;BME280;8865;47.636;7.692;2023-02-14T09:23:44;100044.34;;;8.20;100.00
9474;BME280;8865;47.636;7.692;2023-02-14T09:26:13;100033.22;;;8.34;100.00
9474;BME280;8865;47.636;7.692;2023-02-14T09:28:39;100038.00;;;8.80;100.00
9474;BME280;8865;47.636;7.692;2023-02-14T09:31:14;100031.25;;;7.84;100.00
9474;BME280;8865;47.636;7.692;2023-02-14T09:33:41;100037.72;;;7.75;100.00
9474;BME280;8865;47.636;7.692;2023-02-14T09:36:07;100034.19;;;7.95;100.00
9474;BME280;8865;47.636;7.692;2023-02-14T09:38:36;100036.56;;;8.00;100.00
9474;BME280;8865;47.636;7.692;2023-02-14T09:41:06;100033.09;;;8.18;100.00
9474;BME280;8865;47.636;7.692;2023-02-14T09:46:16;100025.50;;;9.20;100.00
9474;BME280;8865;47.636;7.692;2023-02-14T09:48:45;100025.53;;;9.36;100.00
9474;BME280;8865;47.636;7.692;2023-02-14T09:51:21;100025.34;;;9.23;100.00
9474;BME280;8865;47.636;7.692;2023-02-14T09:56:28;100017.03;;;9.15;100.00
9474;BME280;8865;47.636;7.692;2023-02-14T10:01:41;100027.19;;;10.02;100.00
9474;BME280;8865;47.636;7.692;2023-02-14T10:06:48;100022.53;;;11.15;90.51
9474;BME280;8865;47.636;7.692;2023-02-14T10:12:02;100020.94;;;11.84;79.34
9474;BME280;8865;47.636;7.692;2023-02-14T10:14:31;100006.78;;;12.94;71.91
9474;BME280;8865;47.636;7.692;2023-02-14T10:17:13;100006.75;;;15.71;62.46
9474;BME280;8865;47.636;7.692;2023-02-14T10:19:54;100002.88;;;18.37;50.27
9474;BME280;8865;47.636;7.692;2023-02-14T10:22:26;99998.44;;;20.61;41.55
9474;BME280;8865;47.636;7.692;2023-02-14T10:25:13;99990.38;;;22.91;34.97
9474;BME280;8865;47.636;7.692;2023-02-14T10:27:44;99988.66;;;25.02;30.25
9474;BME280;8865;47.636;7.692;2023-02-14T10:30:22;99988.41;;;26.51;27.47
9474;BME280;8865;47.636;7.692;2023-02-14T10:35:50;99980.22;;;28.73;23.49
9474;BME280;8865;47.636;7.692;2023-02-14T10:38:20;99972.28;;;28.98;23.27
9474;BME280;8865;47.636;7.692;2023-02-14T10:44:02;99955.88;;;30.35;21.18
9474;BME280;8865;47.636;7.692;2023-02-14T10:47:09;99949.88;;;31.02;19.71
9474;BME280;8865;47.636;7.692;2023-02-14T10:49:48;99950.47;;;31.60;19.29
9474;BME280;8865;47.636;7.692;2023-02-14T10:52:34;99943.59;;;31.39;19.36
9474;BME280;8865;47.636;7.692;2023-02-14T10:55:26;99938.78;;;31.59;19.37
9474;BME280;8865;47.636;7.692;2023-02-14T10:57:55;99937.56;;;32.16;18.56
9474;BME280;8865;47.636;7.692;2023-02-14T11:00:32;99925.72;;;31.98;18.75
9474;BME280;8865;47.636;7.692;2023-02-14T11:03:01;99923.84;;;31.57;18.93
9474;BME280;8865;47.636;7.692;2023-02-14T11:05:34;99919.38;;;31.62;18.58
9474;BME280;8865;47.636;7.692;2023-02-14T11:10:38;99907.31;;;32.00;18.04
9474;BME280;8865;47.636;7.692;2023-02-14T11:13:25;99905.97;;;32.21;18.41
9474;BME280;8865;47.636;7.692;2023-02-14T11:15:51;99904.69;;;32.83;17.62
9474;BME280;8865;47.636;7.692;2023-02-14T11:18:24;99901.13;;;32.23;17.82
9474;BME280;8865;47.636;7.692;2023-02-14T11:21:11;99903.03;;;32.23;17.86
9474;BME280;8865;47.636;7.692;2023-02-14T11:23:44;99897.25;;;32.31;17.53
9474;BME280;8865;47.636;7.692;2023-02-14T11:26:19;99892.78;;;32.25;17.95
9474;BME280;8865;47.636;7.692;2023-02-14T11:28:54;99890.00;;;33.08;17.20
9474;BME280;8865;47.636;7.692;2023-02-14T11:33:55;99873.09;;;32.65;17.25
9474;BME280;8865;47.636;7.692;2023-02-14T11:36:21;99875.81;;;33.46;16.86
9474;BME280;8865;47.636;7.692;2023-02-14T11:38:59;99871.59;;;33.10;16.92
9474;BME280;8865;47.636;7.692;2023-02-14T11:41:49;99865.88;;;32.83;16.97
9474;BME280;8865;47.636;7.692;2023-02-14T11:44:18;99865.88;;;33.23;17.18
9474;BME280;8865;47.636;7.692;2023-02-14T11:46:49;99854.28;;;33.28;16.79
9474;BME280;8865;47.636;7.692;2023-02-14T11:49:58;99858.22;;;32.32;17.01
9474;BME280;8865;47.636;7.692;2023-02-14T11:52:27;99862.69;;;33.26;16.89
9474;BME280;8865;47.636;7.692;2023-02-14T11:54:55;99851.84;;;33.15;16.90
9474;BME280;8865;47.636;7.692;2023-02-14T11:57:37;99839.59;;;33.41;16.96
9474;BME280;8865;47.636;7.692;2023-02-14T12:00:16;99847.44;;;33.71;16.45
9474;BME280;8865;47.636;7.692;2023-02-14T12:02:45;99836.69;;;33.76;16.48
9474;BME280;8865;47.636;7.692;2023-02-14T12:05:26;99835.63;;;33.94;16.48
9474;BME280;8865;47.636;7.692;2023-02-14T12:07:56;99832.91;;;33.94;15.86
9474;BME280;8865;47.636;7.692;2023-02-14T12:26:03;99792.56;;;35.41;15.29
9474;BME280;8865;47.636;7.692;2023-02-14T12:28:38;99798.03;;;35.73;14.69
9474;BME280;8865;47.636;7.692;2023-02-14T12:31:10;99791.25;;;35.44;15.02
9474;BME280;8865;47.636;7.692;2023-02-14T12:33:37;99793.38;;;36.06;14.90
9474;BME280;8865;47.636;7.692;2023-02-14T12:39:09;99785.97;;;35.69;14.83
9474;BME280;8865;47.636;7.692;2023-02-14T12:41:48;99778.53;;;36.29;14.39
9474;BME280;8865;47.636;7.692;2023-02-14T12:58:08;99770.97;;;34.80;15.37
9474;BME280;8865;47.636;7.692;2023-02-14T13:00:45;99756.38;;;35.18;15.18
9474;BME280;8865;47.636;7.692;2023-02-14T13:03:20;99741.72;;;35.24;14.81
9474;BME280;8865;47.636;7.692;2023-02-14T13:06:03;99746.34;;;35.24;15.25
9474;BME280;8865;47.636;7.692;2023-02-14T13:22:39;99711.72;;;36.42;13.83
9474;BME280;8865;47.636;7.692;2023-02-14T13:25:22;99716.09;;;35.90;14.21
9474;BME280;8865;47.636;7.692;2023-02-14T13:27:56;99708.91;;;35.41;14.75
9474;BME280;8865;47.636;7.692;2023-02-14T13:30:29;99701.63;;;35.85;14.50
9474;BME280;8865;47.636;7.692;2023-02-14T13:33:01;99703.78;;;36.36;13.77
9474;BME280;8865;47.636;7.692;2023-02-14T13:35:28;99698.25;;;36.20;14.07
9474;BME280;8865;47.636;7.692;2023-02-14T13:37:59;99694.22;;;36.33;14.08
9474;BME280;8865;47.636;7.692;2023-02-14T13:40:27;99698.72;;;36.12;14.41
9474;BME280;8865;47.636;7.692;2023-02-14T13:42:57;99693.19;;;36.50;13.78
9474;BME280;8865;47.636;7.692;2023-02-14T13:50:47;99682.34;;;37.16;13.47
9474;BME280;8865;47.636;7.692;2023-02-14T13:56:03;99680.19;;;37.03;13.37
9474;BME280;8865;47.636;7.692;2023-02-14T13:58:30;99672.50;;;37.10;13.62
9474;BME280;8865;47.636;7.692;2023-02-14T14:00:56;99674.72;;;37.34;13.36
9474;BME280;8865;47.636;7.692;2023-02-14T14:06:11;99669.44;;;36.65;13.55
9474;BME280;8865;47.636;7.692;2023-02-14T14:08:40;99672.97;;;36.45;13.74
9474;BME280;8865;47.636;7.692;2023-02-14T14:18:50;99666.50;;;37.13;13.34
9474;BME280;8865;47.636;7.692;2023-02-14T14:26:46;99662.41;;;36.75;13.28
9474;BME280;8865;47.636;7.692;2023-02-14T14:29:21;99662.09;;;36.71;13.29
9474;BME280;8865;47.636;7.692;2023-02-14T14:31:50;99652.53;;;36.74;13.06
9474;BME280;8865;47.636;7.692;2023-02-14T14:34:24;99659.06;;;36.52;13.31
9474;BME280;8865;47.636;7.692;2023-02-14T14:37:18;99651.09;;;36.35;13.81
9474;BME280;8865;47.636;7.692;2023-02-14T14:39:53;99656.75;;;36.13;13.65
9474;BME280;8865;47.636;7.692;2023-02-14T14:42:20;99658.47;;;35.76;13.78
9474;BME280;8865;47.636;7.692;2023-02-14T14:44:52;99661.41;;;35.27;14.27
9474;BME280;8865;47.636;7.692;2023-02-14T14:47:22;99659.75;;;33.95;15.07
9474;BME280;8865;47.636;7.692;2023-02-14T14:49:51;99652.69;;;31.82;16.36
9474;BME280;8865;47.636;7.692;2023-02-14T14:52:31;99653.44;;;28.89;19.16
9474;BME280;8865;47.636;7.692;2023-02-14T14:54:59;99655.19;;;26.51;21.78
9474;BME280;8865;47.636;7.692;2023-02-14T14:57:26;99657.06;;;23.08;25.36
9474;BME280;8865;47.636;7.692;2023-02-14T15:02:34;99663.50;;;19.61;31.06
9474;BME280;8865;47.636;7.692;2023-02-14T15:05:12;99661.47;;;18.10;34.00
9474;BME280;8865;47.636;7.692;2023-02-14T15:07:42;99666.97;;;17.22;36.10
9474;BME280;8865;47.636;7.692;2023-02-14T15:10:26;99661.63;;;16.22;38.91
9474;BME280;8865;47.636;7.692;2023-02-14T15:12:56;99659.44;;;15.76;41.10
9474;BME280;8865;47.636;7.692;2023-02-14T15:15:46;99659.84;;;15.29;42.70
9474;BME280;8865;47.636;7.692;2023-02-14T15:18:14;99666.72;;;14.88;44.56
9474;BME280;8865;47.636;7.692;2023-02-14T15:20:42;99671.94;;;14.55;46.51
9474;BME280;8865;47.636;7.692;2023-02-14T15:23:17;99670.31;;;14.32;48.56
9474;BME280;8865;47.636;7.692;2023-02-14T15:25:46;99671.25;;;13.97;50.05
9474;BME280;8865;47.636;7.692;2023-02-14T15:28:34;99673.16;;;13.72;52.46
9474;BME280;8865;47.636;7.692;2023-02-14T15:31:03;99670.59;;;13.48;53.70
9474;BME280;8865;47.636;7.692;2023-02-14T15:33:30;99674.09;;;13.00;56.09
9474;BME280;8865;47.636;7.692;2023-02-14T15:36:07;99667.28;;;12.73;59.73
9474;BME280;8865;47.636;7.692;2023-02-14T15:38:39;99672.34;;;12.63;61.44
9474;BME280;8865;47.636;7.692;2023-02-14T15:41:06;99670.22;;;12.44;64.19
9474;BME280;8865;47.636;7.692;2023-02-14T15:43:35;99673.84;;;12.05;67.88
9474;BME280;8865;47.636;7.692;2023-02-14T15:48:49;99671.09;;;11.68;74.20
9474;BME280;8865;47.636;7.692;2023-02-14T15:51:19;99673.47;;;11.32;77.70
9474;BME280;8865;47.636;7.692;2023-02-14T15:53:51;99670.91;;;11.18;81.70
9474;BME280;8865;47.636;7.692;2023-02-14T15:58:44;99669.38;;;10.88;89.79
9474;BME280;8865;47.636;7.692;2023-02-14T16:01:11;99665.06;;;10.87;89.87
9474;BME280;8865;47.636;7.692;2023-02-14T16:03:39;99664.59;;;10.53;93.70